PANCPADU

Guest
Details From PANC - Ted Stevens Anchorage Intl
To PADU - Unalaska
Flight Number -
Tags Generated
Created
Modified
Stats Distance 686 nm / 1,270 km
Max Altitude 0 ft / 0 m
Waypoints 4
Social Downloads 8
Likes 0
Share VATSIM

Download

Looking for another format? Having issues loading an existing format? Contact us
Advertisement - Login to hide

Notes

Generated

Route

PANC AKN60 DUT PADU

ID Type Via Altitude Latitude Longitude Leg Dist Tot Dist Heading (true) Name
O PANC APT - 0 ft / 0 m 61.16976˚ -150.00833˚ - 0 nm - -
AKN60 FIX - 0 ft / 0 m 58.75684˚ -156.82880˚ 250 nm 250 nm 238° / 232° -
DUT NDB - 0 ft / 0 m 53.90517˚ -166.54914˚ 434 nm 685 nm 232° / 224° DUTCH HARBOR NDB
O PADU APT - 0 ft / 0 m 53.90289˚ -166.55140˚ 0 nm 685 nm 210° / 210° UNALASKA

Altitude Profile

Advertisement - Login to hide

Weather


0- 5 10 15 20 25 30 35+ Temperature / ° C

Clouds and Precipitation
Forecast for 2017-12-18 18:00 UTC. Updated 2 hours ago

Ground ~20,000 ft ~40,000 ft Winds

PANC

Details ICAO PANC (ANC)
Name Ted Stevens Anchorage Intl
Region USA (Alaska)
Timezone America/Anchorage (UTC-9.0)
Stats Elevation 152 ft / 46 m (AMSL)
Location 61.174111° -149.995982°
Runways 3
Magnetic Variation 16.218° E

METAR

PANC 181453Z 10003KT 10SM FEW001 FEW004 M08/M09 A3006

Decode

TAF

PANC 181247Z 1813/1918 VRB03KT P6SM VCFG SCT050 FM182100 02004KT P6SM SCT120 FM191400 13012G20KT P6SM VCSH SCT025 BKN040

Decode

Departure Runways

ID Width Length Bearing (true) Bearing (mag) Surface Threshold Offset Overrun Length
07L 151 ft / 46 m 10,563 ft / 3,220 m 89.88° 73.66° Asphalt 0 ft / 0 m 381 ft / 116 m
07R 151 ft / 46 m 10,862 ft / 3,311 m 89.85° 73.63° Asphalt 0 ft / 0 m 499 ft / 152 m
15 151 ft / 46 m 11,563 ft / 3,524 m 164.90° 148.68° Asphalt 200 ft / 61 m 220 ft / 67 m
25L 151 ft / 46 m 10,862 ft / 3,311 m 269.91° 253.69° Asphalt 0 ft / 0 m 151 ft / 46 m
25R 151 ft / 46 m 10,563 ft / 3,220 m 269.94° 253.72° Asphalt 0 ft / 0 m 381 ft / 116 m
33 151 ft / 46 m 11,563 ft / 3,524 m 344.91° 328.69° Asphalt 892 ft / 272 m 449 ft / 137 m

PADU

Details ICAO PADU (DUT)
Name UNALASKA
Region USA (Alaska)
Timezone America/Adak (UTC-10.0)
Stats Elevation 22 ft / 7 m (AMSL)
Location 53.899070° -166.545064°
Runways 1
Magnetic Variation 9.123° E

METAR

PADU 181456Z AUTO 17009KT 140V200 10SM -RA BKN031 OVC043 06/01 A2993 RMK AO2 SLP140 P0000 60000 T00560006 58028

Decode

TAF

TAF PADU 181150Z 1812/1912 18018G28KT P6SM SCT025 BKN040 FM181600 18025G37KT 5SM -RA BR BKN015 OVC025 TEMPO 1818/1821 2SM BR BKN008 OVC015 FM182100 18028G43KT 3SM -RA BR BKN008 OVC015 FM190500 24020G25KT P6SM -RASN SCT015 BKN025

Decode

Destination Runways

ID Width Length Bearing (true) Bearing (mag) Surface Threshold Offset Overrun Length
12 100 ft / 30 m 3,895 ft / 1,187 m 135.64° 126.52° Asphalt 100 ft / 30 m 0 ft / 0 m
30 100 ft / 30 m 3,895 ft / 1,187 m 315.65° 306.53° Asphalt 101 ft / 31 m 0 ft / 0 m

Popular Alternatives